sensor_id;sensor_type;location;lat;lon;timestamp;P1;durP1;ratioP1;P2;durP2;ratioP2
16504;SDS011;8365;51.030;4.696;2023-06-14T00:00:25;9.65;;;8.73;;
16504;SDS011;8365;51.030;4.696;2023-06-14T00:02:56;9.68;;;8.68;;
16504;SDS011;8365;51.030;4.696;2023-06-14T00:05:28;9.73;;;8.23;;
16504;SDS011;8365;51.030;4.696;2023-06-14T00:08:03;11.32;;;8.75;;
16504;SDS011;8365;51.030;4.696;2023-06-14T00:10:37;8.60;;;7.80;;
16504;SDS011;8365;51.030;4.696;2023-06-14T00:13:09;8.80;;;7.90;;
16504;SDS011;8365;51.030;4.696;2023-06-14T00:15:39;9.23;;;8.27;;
16504;SDS011;8365;51.030;4.696;2023-06-14T00:18:12;8.50;;;7.70;;
16504;SDS011;8365;51.030;4.696;2023-06-14T00:20:43;9.55;;;8.55;;
16504;SDS011;8365;51.030;4.696;2023-06-14T00:23:14;12.30;;;8.40;;
16504;SDS011;8365;51.030;4.696;2023-06-14T00:25:45;10.10;;;8.95;;
16504;SDS011;8365;51.030;4.696;2023-06-14T00:28:18;9.82;;;8.77;;
16504;SDS011;8365;51.030;4.696;2023-06-14T00:30:51;9.88;;;8.90;;
16504;SDS011;8365;51.030;4.696;2023-06-14T00:33:21;9.57;;;8.68;;
16504;SDS011;8365;51.030;4.696;2023-06-14T00:35:52;11.45;;;8.55;;
16504;SDS011;8365;51.030;4.696;2023-06-14T00:38:25;11.10;;;9.35;;
16504;SDS011;8365;51.030;4.696;2023-06-14T00:40:56;10.52;;;9.27;;
16504;SDS011;8365;51.030;4.696;2023-06-14T00:43:26;9.48;;;8.52;;
16504;SDS011;8365;51.030;4.696;2023-06-14T00:45:57;9.20;;;8.40;;
16504;SDS011;8365;51.030;4.696;2023-06-14T00:48:28;9.40;;;8.50;;
16504;SDS011;8365;51.030;4.696;2023-06-14T00:50:59;10.55;;;8.75;;
16504;SDS011;8365;51.030;4.696;2023-06-14T00:53:33;11.77;;;9.40;;
16504;SDS011;8365;51.030;4.696;2023-06-14T00:56:05;14.25;;;9.60;;
16504;SDS011;8365;51.030;4.696;2023-06-14T00:58:36;10.57;;;8.70;;
16504;SDS011;8365;51.030;4.696;2023-06-14T01:01:06;12.07;;;8.98;;
16504;SDS011;8365;51.030;4.696;2023-06-14T01:03:37;12.15;;;9.60;;
16504;SDS011;8365;51.030;4.696;2023-06-14T01:09:15;10.68;;;9.77;;
16504;SDS011;8365;51.030;4.696;2023-06-14T01:11:51;11.35;;;9.82;;
16504;SDS011;8365;51.030;4.696;2023-06-14T01:14:31;11.18;;;9.73;;
16504;SDS011;8365;51.030;4.696;2023-06-14T01:17:03;10.68;;;9.57;;
16504;SDS011;8365;51.030;4.696;2023-06-14T01:19:34;12.93;;;10.63;;
16504;SDS011;8365;51.030;4.696;2023-06-14T01:22:05;11.13;;;9.95;;
16504;SDS011;8365;51.030;4.696;2023-06-14T01:24:36;13.20;;;9.90;;
16504;SDS011;8365;51.030;4.696;2023-06-14T01:27:09;10.57;;;9.55;;
16504;SDS011;8365;51.030;4.696;2023-06-14T01:29:40;10.93;;;9.63;;
16504;SDS011;8365;51.030;4.696;2023-06-14T01:32:15;11.63;;;10.43;;
16504;SDS011;8365;51.030;4.696;2023-06-14T01:34:48;13.20;;;10.05;;
16504;SDS011;8365;51.030;4.696;2023-06-14T01:37:18;11.02;;;9.90;;
16504;SDS011;8365;51.030;4.696;2023-06-14T01:39:50;11.80;;;9.88;;
16504;SDS011;8365;51.030;4.696;2023-06-14T01:42:21;10.77;;;9.50;;
16504;SDS011;8365;51.030;4.696;2023-06-14T01:44:53;11.93;;;10.45;;
16504;SDS011;8365;51.030;4.696;2023-06-14T01:47:24;10.90;;;9.95;;
16504;SDS011;8365;51.030;4.696;2023-06-14T01:49:55;11.35;;;10.10;;
16504;SDS011;8365;51.030;4.696;2023-06-14T01:52:25;13.00;;;10.05;;
16504;SDS011;8365;51.030;4.696;2023-06-14T01:54:56;11.23;;;10.23;;
16504;SDS011;8365;51.030;4.696;2023-06-14T01:57:27;11.85;;;10.57;;
16504;SDS011;8365;51.030;4.696;2023-06-14T01:59:58;11.43;;;10.32;;
16504;SDS011;8365;51.030;4.696;2023-06-14T02:02:30;12.75;;;10.18;;
16504;SDS011;8365;51.030;4.696;2023-06-14T02:05:01;13.65;;;10.65;;
16504;SDS011;8365;51.030;4.696;2023-06-14T02:07:32;11.20;;;10.05;;
16504;SDS011;8365;51.030;4.696;2023-06-14T02:10:03;11.55;;;10.48;;
16504;SDS011;8365;51.030;4.696;2023-06-14T02:12:34;12.23;;;10.32;;
16504;SDS011;8365;51.030;4.696;2023-06-14T02:15:05;12.23;;;10.95;;
16504;SDS011;8365;51.030;4.696;2023-06-14T02:17:36;11.25;;;10.07;;
16504;SDS011;8365;51.030;4.696;2023-06-14T02:20:07;12.45;;;11.15;;
16504;SDS011;8365;51.030;4.696;2023-06-14T02:22:38;11.73;;;10.73;;
16504;SDS011;8365;51.030;4.696;2023-06-14T02:25:10;11.95;;;10.55;;
16504;SDS011;8365;51.030;4.696;2023-06-14T02:27:40;12.30;;;11.02;;
16504;SDS011;8365;51.030;4.696;2023-06-14T02:30:11;10.98;;;9.75;;
16504;SDS011;8365;51.030;4.696;2023-06-14T02:32:42;15.95;;;11.02;;
16504;SDS011;8365;51.030;4.696;2023-06-14T02:35:15;11.48;;;10.38;;
16504;SDS011;8365;51.030;4.696;2023-06-14T02:37:47;11.85;;;10.32;;
16504;SDS011;8365;51.030;4.696;2023-06-14T02:40:19;12.43;;;11.13;;
16504;SDS011;8365;51.030;4.696;2023-06-14T02:42:50;12.07;;;11.02;;
16504;SDS011;8365;51.030;4.696;2023-06-14T02:45:20;12.98;;;11.02;;
16504;SDS011;8365;51.030;4.696;2023-06-14T02:47:51;12.77;;;11.15;;
16504;SDS011;8365;51.030;4.696;2023-06-14T02:50:21;11.85;;;10.75;;
16504;SDS011;8365;51.030;4.696;2023-06-14T02:52:53;13.43;;;10.68;;
16504;SDS011;8365;51.030;4.696;2023-06-14T02:55:25;13.30;;;10.90;;
16504;SDS011;8365;51.030;4.696;2023-06-14T02:57:56;12.48;;;11.18;;
16504;SDS011;8365;51.030;4.696;2023-06-14T03:00:29;13.02;;;11.32;;
16504;SDS011;8365;51.030;4.696;2023-06-14T03:03:03;12.05;;;10.93;;
16504;SDS011;8365;51.030;4.696;2023-06-14T03:05:34;12.70;;;10.85;;
16504;SDS011;8365;51.030;4.696;2023-06-14T03:08:08;12.95;;;10.38;;
16504;SDS011;8365;51.030;4.696;2023-06-14T03:10:38;12.90;;;11.00;;
16504;SDS011;8365;51.030;4.696;2023-06-14T03:13:09;11.65;;;10.55;;
16504;SDS011;8365;51.030;4.696;2023-06-14T03:15:42;11.38;;;10.27;;
16504;SDS011;8365;51.030;4.696;2023-06-14T03:18:13;13.18;;;10.38;;
16504;SDS011;8365;51.030;4.696;2023-06-14T03:20:46;12.23;;;10.98;;
16504;SDS011;8365;51.030;4.696;2023-06-14T03:23:16;15.98;;;11.40;;
16504;SDS011;8365;51.030;4.696;2023-06-14T03:25:47;13.68;;;11.18;;
16504;SDS011;8365;51.030;4.696;2023-06-14T03:28:18;12.65;;;11.32;;
16504;SDS011;8365;51.030;4.696;2023-06-14T03:30:48;12.25;;;10.45;;
16504;SDS011;8365;51.030;4.696;2023-06-14T03:33:19;12.32;;;11.10;;
16504;SDS011;8365;51.030;4.696;2023-06-14T03:35:50;13.40;;;11.02;;
16504;SDS011;8365;51.030;4.696;2023-06-14T03:38:24;12.55;;;11.25;;
16504;SDS011;8365;51.030;4.696;2023-06-14T03:40:55;13.07;;;11.70;;
16504;SDS011;8365;51.030;4.696;2023-06-14T03:43:25;13.45;;;12.02;;
16504;SDS011;8365;51.030;4.696;2023-06-14T03:45:57;15.68;;;12.02;;
16504;SDS011;8365;51.030;4.696;2023-06-14T03:48:27;11.93;;;10.80;;
16504;SDS011;8365;51.030;4.696;2023-06-14T03:50:58;12.40;;;11.18;;
16504;SDS011;8365;51.030;4.696;2023-06-14T03:53:28;11.75;;;10.57;;
16504;SDS011;8365;51.030;4.696;2023-06-14T03:55:59;11.65;;;10.45;;
16504;SDS011;8365;51.030;4.696;2023-06-14T03:58:30;11.97;;;10.97;;
16504;SDS011;8365;51.030;4.696;2023-06-14T04:01:00;12.73;;;11.27;;
16504;SDS011;8365;51.030;4.696;2023-06-14T04:03:31;11.85;;;10.23;;
16504;SDS011;8365;51.030;4.696;2023-06-14T04:06:01;12.45;;;11.25;;
16504;SDS011;8365;51.030;4.696;2023-06-14T04:08:32;12.00;;;10.90;;
16504;SDS011;8365;51.030;4.696;2023-06-14T04:11:02;12.13;;;10.82;;
16504;SDS011;8365;51.030;4.696;2023-06-14T04:13:33;11.25;;;10.10;;
16504;SDS011;8365;51.030;4.696;2023-06-14T04:16:05;12.18;;;10.85;;
16504;SDS011;8365;51.030;4.696;2023-06-14T04:18:35;10.63;;;9.60;;
16504;SDS011;8365;51.030;4.696;2023-06-14T04:21:06;12.10;;;10.73;;
16504;SDS011;8365;51.030;4.696;2023-06-14T04:23:38;13.50;;;11.35;;
16504;SDS011;8365;51.030;4.696;2023-06-14T04:26:08;12.35;;;9.93;;
16504;SDS011;8365;51.030;4.696;2023-06-14T04:28:40;12.23;;;10.45;;
16504;SDS011;8365;51.030;4.696;2023-06-14T04:31:11;12.32;;;10.90;;
16504;SDS011;8365;51.030;4.696;2023-06-14T04:33:42;12.60;;;9.77;;
16504;SDS011;8365;51.030;4.696;2023-06-14T04:36:16;11.13;;;9.98;;
16504;SDS011;8365;51.030;4.696;2023-06-14T04:38:47;14.43;;;10.25;;
16504;SDS011;8365;51.030;4.696;2023-06-14T04:41:20;11.15;;;10.07;;
16504;SDS011;8365;51.030;4.696;2023-06-14T04:43:55;13.45;;;10.48;;
16504;SDS011;8365;51.030;4.696;2023-06-14T04:46:27;13.75;;;10.35;;
16504;SDS011;8365;51.030;4.696;2023-06-14T04:49:02;10.98;;;9.82;;
16504;SDS011;8365;51.030;4.696;2023-06-14T04:51:32;12.73;;;10.50;;
16504;SDS011;8365;51.030;4.696;2023-06-14T04:54:03;11.25;;;10.02;;
16504;SDS011;8365;51.030;4.696;2023-06-14T04:56:34;11.35;;;10.20;;
16504;SDS011;8365;51.030;4.696;2023-06-14T04:59:07;11.05;;;9.88;;
16504;SDS011;8365;51.030;4.696;2023-06-14T05:01:37;10.55;;;9.52;;
16504;SDS011;8365;51.030;4.696;2023-06-14T05:04:08;12.15;;;10.02;;
16504;SDS011;8365;51.030;4.696;2023-06-14T05:06:41;11.57;;;10.30;;
16504;SDS011;8365;51.030;4.696;2023-06-14T05:09:14;12.40;;;11.13;;
16504;SDS011;8365;51.030;4.696;2023-06-14T05:11:46;12.57;;;10.93;;
16504;SDS011;8365;51.030;4.696;2023-06-14T05:14:20;11.50;;;9.57;;
16504;SDS011;8365;51.030;4.696;2023-06-14T05:16:52;11.85;;;10.70;;
16504;SDS011;8365;51.030;4.696;2023-06-14T05:19:23;17.25;;;10.45;;
16504;SDS011;8365;51.030;4.696;2023-06-14T05:21:54;11.57;;;10.13;;
16504;SDS011;8365;51.030;4.696;2023-06-14T05:24:27;11.68;;;10.10;;
16504;SDS011;8365;51.030;4.696;2023-06-14T05:27:00;12.27;;;9.98;;
16504;SDS011;8365;51.030;4.696;2023-06-14T05:29:30;13.48;;;10.10;;
16504;SDS011;8365;51.030;4.696;2023-06-14T05:32:01;12.15;;;10.02;;
16504;SDS011;8365;51.030;4.696;2023-06-14T05:34:34;12.63;;;10.38;;
16504;SDS011;8365;51.030;4.696;2023-06-14T05:37:04;13.32;;;10.13;;
16504;SDS011;8365;51.030;4.696;2023-06-14T05:39:35;11.50;;;10.07;;
16504;SDS011;8365;51.030;4.696;2023-06-14T05:42:05;11.07;;;10.07;;
16504;SDS011;8365;51.030;4.696;2023-06-14T05:44:36;13.00;;;10.45;;
16504;SDS011;8365;51.030;4.696;2023-06-14T05:47:06;12.65;;;9.85;;
16504;SDS011;8365;51.030;4.696;2023-06-14T05:49:37;11.35;;;10.15;;
16504;SDS011;8365;51.030;4.696;2023-06-14T05:52:10;11.93;;;10.75;;
16504;SDS011;8365;51.030;4.696;2023-06-14T05:54:42;11.63;;;10.30;;
16504;SDS011;8365;51.030;4.696;2023-06-14T05:57:13;14.30;;;9.98;;
16504;SDS011;8365;51.030;4.696;2023-06-14T05:59:43;11.65;;;10.45;;
16504;SDS011;8365;51.030;4.696;2023-06-14T06:02:14;11.60;;;9.23;;
16504;SDS011;8365;51.030;4.696;2023-06-14T06:04:44;11.45;;;10.35;;
16504;SDS011;8365;51.030;4.696;2023-06-14T06:07:15;12.73;;;9.98;;
16504;SDS011;8365;51.030;4.696;2023-06-14T06:09:46;11.30;;;9.32;;
16504;SDS011;8365;51.030;4.696;2023-06-14T06:12:16;11.40;;;9.13;;
16504;SDS011;8365;51.030;4.696;2023-06-14T06:14:47;14.18;;;9.82;;
16504;SDS011;8365;51.030;4.696;2023-06-14T06:17:17;10.85;;;9.82;;
16504;SDS011;8365;51.030;4.696;2023-06-14T06:19:48;10.70;;;9.73;;
16504;SDS011;8365;51.030;4.696;2023-06-14T06:22:19;10.70;;;9.65;;
16504;SDS011;8365;51.030;4.696;2023-06-14T06:24:49;13.00;;;9.63;;
16504;SDS011;8365;51.030;4.696;2023-06-14T06:27:22;11.02;;;9.55;;
16504;SDS011;8365;51.030;4.696;2023-06-14T06:29:52;11.00;;;8.68;;
16504;SDS011;8365;51.030;4.696;2023-06-14T06:32:23;10.85;;;9.35;;
16504;SDS011;8365;51.030;4.696;2023-06-14T06:34:53;10.93;;;9.75;;
16504;SDS011;8365;51.030;4.696;2023-06-14T06:37:24;10.27;;;9.32;;
16504;SDS011;8365;51.030;4.696;2023-06-14T06:39:54;13.60;;;9.00;;
16504;SDS011;8365;51.030;4.696;2023-06-14T06:42:25;12.27;;;9.32;;
16504;SDS011;8365;51.030;4.696;2023-06-14T06:44:56;11.00;;;8.93;;
16504;SDS011;8365;51.030;4.696;2023-06-14T06:47:26;11.35;;;8.93;;
16504;SDS011;8365;51.030;4.696;2023-06-14T06:49:57;10.07;;;9.13;;
16504;SDS011;8365;51.030;4.696;2023-06-14T06:52:27;13.43;;;8.65;;
16504;SDS011;8365;51.030;4.696;2023-06-14T06:54:59;9.88;;;8.95;;
16504;SDS011;8365;51.030;4.696;2023-06-14T06:57:29;9.88;;;8.88;;
16504;SDS011;8365;51.030;4.696;2023-06-14T07:00:00;10.57;;;9.48;;
16504;SDS011;8365;51.030;4.696;2023-06-14T07:02:30;11.77;;;8.90;;
16504;SDS011;8365;51.030;4.696;2023-06-14T07:05:01;9.60;;;8.57;;
16504;SDS011;8365;51.030;4.696;2023-06-14T07:07:34;9.77;;;8.88;;
16504;SDS011;8365;51.030;4.696;2023-06-14T07:10:05;10.27;;;8.88;;
16504;SDS011;8365;51.030;4.696;2023-06-14T07:12:36;9.88;;;8.75;;
16504;SDS011;8365;51.030;4.696;2023-06-14T07:15:09;9.35;;;8.35;;
16504;SDS011;8365;51.030;4.696;2023-06-14T07:17:40;8.82;;;8.07;;
16504;SDS011;8365;51.030;4.696;2023-06-14T07:20:11;11.23;;;8.05;;
16504;SDS011;8365;51.030;4.696;2023-06-14T07:22:45;9.10;;;8.20;;
16504;SDS011;8365;51.030;4.696;2023-06-14T07:25:18;10.27;;;8.50;;
16504;SDS011;8365;51.030;4.696;2023-06-14T07:27:52;9.25;;;8.35;;
16504;SDS011;8365;51.030;4.696;2023-06-14T07:30:22;10.45;;;8.43;;
16504;SDS011;8365;51.030;4.696;2023-06-14T07:32:55;8.45;;;7.75;;
16504;SDS011;8365;51.030;4.696;2023-06-14T07:35:26;10.90;;;8.63;;
16504;SDS011;8365;51.030;4.696;2023-06-14T07:37:59;9.93;;;8.55;;
16504;SDS011;8365;51.030;4.696;2023-06-14T07:40:30;11.60;;;8.45;;
16504;SDS011;8365;51.030;4.696;2023-06-14T07:43:00;9.02;;;8.13;;
16504;SDS011;8365;51.030;4.696;2023-06-14T07:45:32;8.55;;;7.70;;
16504;SDS011;8365;51.030;4.696;2023-06-14T07:48:02;8.50;;;7.72;;
16504;SDS011;8365;51.030;4.696;2023-06-14T07:50:33;8.65;;;7.80;;
16504;SDS011;8365;51.030;4.696;2023-06-14T07:53:03;10.07;;;8.23;;
16504;SDS011;8365;51.030;4.696;2023-06-14T07:55:34;11.13;;;9.27;;
16504;SDS011;8365;51.030;4.696;2023-06-14T07:58:06;10.20;;;8.63;;
16504;SDS011;8365;51.030;4.696;2023-06-14T08:00:40;9.02;;;7.60;;
16504;SDS011;8365;51.030;4.696;2023-06-14T08:03:11;9.25;;;8.07;;
16504;SDS011;8365;51.030;4.696;2023-06-14T08:05:42;16.05;;;8.20;;
16504;SDS011;8365;51.030;4.696;2023-06-14T08:08:15;12.52;;;8.73;;
16504;SDS011;8365;51.030;4.696;2023-06-14T08:10:45;10.45;;;8.60;;
16504;SDS011;8365;51.030;4.696;2023-06-14T08:13:16;8.88;;;7.75;;
16504;SDS011;8365;51.030;4.696;2023-06-14T08:15:48;10.70;;;8.00;;
16504;SDS011;8365;51.030;4.696;2023-06-14T08:18:19;9.95;;;8.70;;
16504;SDS011;8365;51.030;4.696;2023-06-14T08:20:50;12.10;;;8.23;;
16504;SDS011;8365;51.030;4.696;2023-06-14T08:23:22;8.05;;;7.25;;
16504;SDS011;8365;51.030;4.696;2023-06-14T08:25:52;11.90;;;8.02;;
16504;SDS011;8365;51.030;4.696;2023-06-14T08:28:23;10.32;;;7.57;;
16504;SDS011;8365;51.030;4.696;2023-06-14T08:30:54;10.85;;;7.20;;
16504;SDS011;8365;51.030;4.696;2023-06-14T08:33:25;10.73;;;8.00;;
16504;SDS011;8365;51.030;4.696;2023-06-14T08:35:56;9.25;;;7.30;;
16504;SDS011;8365;51.030;4.696;2023-06-14T08:38:26;9.63;;;8.00;;
16504;SDS011;8365;51.030;4.696;2023-06-14T08:40:57;10.70;;;7.43;;
16504;SDS011;8365;51.030;4.696;2023-06-14T08:43:28;9.15;;;7.75;;
16504;SDS011;8365;51.030;4.696;2023-06-14T08:46:00;8.82;;;7.43;;
16504;SDS011;8365;51.030;4.696;2023-06-14T08:48:32;9.23;;;7.70;;
16504;SDS011;8365;51.030;4.696;2023-06-14T08:51:03;9.65;;;7.32;;
16504;SDS011;8365;51.030;4.696;2023-06-14T08:53:34;8.80;;;7.45;;
16504;SDS011;8365;51.030;4.696;2023-06-14T08:56:12;8.23;;;7.07;;
16504;SDS011;8365;51.030;4.696;2023-06-14T08:58:43;9.82;;;7.40;;
16504;SDS011;8365;51.030;4.696;2023-06-14T09:01:15;8.00;;;7.22;;
16504;SDS011;8365;51.030;4.696;2023-06-14T09:03:48;9.48;;;6.90;;
16504;SDS011;8365;51.030;4.696;2023-06-14T09:06:19;9.13;;;6.82;;
16504;SDS011;8365;51.030;4.696;2023-06-14T09:08:53;8.18;;;7.10;;
16504;SDS011;8365;51.030;4.696;2023-06-14T09:11:26;7.72;;;7.03;;
16504;SDS011;8365;51.030;4.696;2023-06-14T09:13:57;10.50;;;6.50;;
16504;SDS011;8365;51.030;4.696;2023-06-14T09:16:28;13.40;;;7.90;;
16504;SDS011;8365;51.030;4.696;2023-06-14T09:18:58;10.52;;;6.78;;
16504;SDS011;8365;51.030;4.696;2023-06-14T09:21:29;9.60;;;6.70;;
16504;SDS011;8365;51.030;4.696;2023-06-14T09:24:04;9.32;;;7.38;;
16504;SDS011;8365;51.030;4.696;2023-06-14T09:26:35;7.28;;;6.50;;
16504;SDS011;8365;51.030;4.696;2023-06-14T09:29:09;25.08;;;9.07;;
16504;SDS011;8365;51.030;4.696;2023-06-14T09:31:40;11.48;;;6.30;;
16504;SDS011;8365;51.030;4.696;2023-06-14T09:34:10;9.35;;;6.07;;
16504;SDS011;8365;51.030;4.696;2023-06-14T09:36:41;11.18;;;6.50;;
16504;SDS011;8365;51.030;4.696;2023-06-14T09:39:12;8.15;;;6.10;;
16504;SDS011;8365;51.030;4.696;2023-06-14T09:41:49;9.02;;;6.22;;
16504;SDS011;8365;51.030;4.696;2023-06-14T09:44:19;7.43;;;5.97;;
16504;SDS011;8365;51.030;4.696;2023-06-14T09:46:51;13.88;;;7.07;;
16504;SDS011;8365;51.030;4.696;2023-06-14T09:49:22;8.63;;;6.00;;
16504;SDS011;8365;51.030;4.696;2023-06-14T09:51:55;6.03;;;5.47;;
16504;SDS011;8365;51.030;4.696;2023-06-14T09:54:27;5.82;;;5.32;;
16504;SDS011;8365;51.030;4.696;2023-06-14T09:56:59;6.20;;;5.47;;
16504;SDS011;8365;51.030;4.696;2023-06-14T09:59:32;6.85;;;5.50;;
16504;SDS011;8365;51.030;4.696;2023-06-14T10:02:05;7.78;;;5.70;;
16504;SDS011;8365;51.030;4.696;2023-06-14T10:04:41;6.90;;;5.55;;
16504;SDS011;8365;51.030;4.696;2023-06-14T10:07:19;7.07;;;5.35;;
16504;SDS011;8365;51.030;4.696;2023-06-14T10:09:52;6.65;;;5.15;;
16504;SDS011;8365;51.030;4.696;2023-06-14T10:12:23;9.77;;;5.50;;
16504;SDS011;8365;51.030;4.696;2023-06-14T10:14:54;8.90;;;5.60;;
16504;SDS011;8365;51.030;4.696;2023-06-14T10:20:17;7.68;;;5.65;;
16504;SDS011;8365;51.030;4.696;2023-06-14T10:23:07;6.10;;;5.00;;
16504;SDS011;8365;51.030;4.696;2023-06-14T10:25:49;5.38;;;4.82;;
16504;SDS011;8365;51.030;4.696;2023-06-14T10:28:20;5.50;;;4.40;;
16504;SDS011;8365;51.030;4.696;2023-06-14T10:31:07;6.28;;;5.40;;
16504;SDS011;8365;51.030;4.696;2023-06-14T10:33:39;6.47;;;5.10;;
16504;SDS011;8365;51.030;4.696;2023-06-14T10:36:25;5.88;;;5.03;;
16504;SDS011;8365;51.030;4.696;2023-06-14T10:41:29;11.23;;;5.10;;
16504;SDS011;8365;51.030;4.696;2023-06-14T10:46:55;11.45;;;5.38;;
16504;SDS011;8365;51.030;4.696;2023-06-14T10:52:12;6.82;;;4.88;;
16504;SDS011;8365;51.030;4.696;2023-06-14T11:00:13;4.95;;;4.45;;
16504;SDS011;8365;51.030;4.696;2023-06-14T11:05:53;10.23;;;4.85;;
16504;SDS011;8365;51.030;4.696;2023-06-14T11:11:14;7.35;;;4.70;;
16504;SDS011;8365;51.030;4.696;2023-06-14T11:13:45;4.60;;;4.20;;
16504;SDS011;8365;51.030;4.696;2023-06-14T11:16:17;4.78;;;4.38;;
16504;SDS011;8365;51.030;4.696;2023-06-14T11:18:49;6.25;;;4.70;;
16504;SDS011;8365;51.030;4.696;2023-06-14T11:21:19;5.05;;;4.55;;
16504;SDS011;8365;51.030;4.696;2023-06-14T11:23:50;10.00;;;4.93;;
16504;SDS011;8365;51.030;4.696;2023-06-14T11:26:29;7.97;;;4.30;;
16504;SDS011;8365;51.030;4.696;2023-06-14T11:29:01;5.20;;;4.32;;
16504;SDS011;8365;51.030;4.696;2023-06-14T11:31:31;8.38;;;4.28;;
16504;SDS011;8365;51.030;4.696;2023-06-14T11:34:02;5.90;;;4.78;;
16504;SDS011;8365;51.030;4.696;2023-06-14T11:36:36;6.63;;;4.28;;
16504;SDS011;8365;51.030;4.696;2023-06-14T11:39:06;6.10;;;4.78;;
16504;SDS011;8365;51.030;4.696;2023-06-14T11:41:44;5.85;;;4.05;;
16504;SDS011;8365;51.030;4.696;2023-06-14T11:44:15;6.72;;;4.32;;
16504;SDS011;8365;51.030;4.696;2023-06-14T11:46:46;6.75;;;4.38;;
16504;SDS011;8365;51.030;4.696;2023-06-14T11:49:18;8.20;;;4.20;;
16504;SDS011;8365;51.030;4.696;2023-06-14T11:51:48;6.10;;;3.92;;
16504;SDS011;8365;51.030;4.696;2023-06-14T11:54:21;7.43;;;4.38;;
16504;SDS011;8365;51.030;4.696;2023-06-14T11:56:51;5.35;;;3.60;;
16504;SDS011;8365;51.030;4.696;2023-06-14T11:59:23;8.10;;;4.00;;
16504;SDS011;8365;51.030;4.696;2023-06-14T12:01:55;6.80;;;4.10;;
16504;SDS011;8365;51.030;4.696;2023-06-14T12:04:28;11.95;;;4.05;;
16504;SDS011;8365;51.030;4.696;2023-06-14T12:07:09;4.63;;;3.70;;
16504;SDS011;8365;51.030;4.696;2023-06-14T12:09:42;5.45;;;3.58;;
16504;SDS011;8365;51.030;4.696;2023-06-14T12:12:36;3.92;;;3.35;;
16504;SDS011;8365;51.030;4.696;2023-06-14T12:15:08;5.68;;;3.60;;
16504;SDS011;8365;51.030;4.696;2023-06-14T12:17:42;5.88;;;3.10;;
16504;SDS011;8365;51.030;4.696;2023-06-14T12:20:13;7.45;;;3.70;;
16504;SDS011;8365;51.030;4.696;2023-06-14T12:22:52;4.10;;;3.28;;
16504;SDS011;8365;51.030;4.696;2023-06-14T12:25:27;4.55;;;3.60;;
16504;SDS011;8365;51.030;4.696;2023-06-14T12:28:05;3.80;;;3.50;;
16504;SDS011;8365;51.030;4.696;2023-06-14T12:30:36;6.90;;;3.55;;
16504;SDS011;8365;51.030;4.696;2023-06-14T12:33:07;5.43;;;3.30;;
16504;SDS011;8365;51.030;4.696;2023-06-14T12:35:38;3.35;;;3.05;;
16504;SDS011;8365;51.030;4.696;2023-06-14T12:38:08;4.55;;;3.38;;
16504;SDS011;8365;51.030;4.696;2023-06-14T12:40:39;4.70;;;3.15;;
16504;SDS011;8365;51.030;4.696;2023-06-14T12:43:09;6.00;;;2.72;;
16504;SDS011;8365;51.030;4.696;2023-06-14T12:45:42;4.72;;;3.28;;
16504;SDS011;8365;51.030;4.696;2023-06-14T12:48:12;3.08;;;2.60;;
16504;SDS011;8365;51.030;4.696;2023-06-14T12:50:43;2.97;;;2.70;;
16504;SDS011;8365;51.030;4.696;2023-06-14T12:53:13;4.72;;;2.80;;
16504;SDS011;8365;51.030;4.696;2023-06-14T12:55:47;4.57;;;2.90;;
16504;SDS011;8365;51.030;4.696;2023-06-14T12:58:17;5.63;;;3.15;;
16504;SDS011;8365;51.030;4.696;2023-06-14T13:00:49;3.10;;;2.50;;
16504;SDS011;8365;51.030;4.696;2023-06-14T13:03:20;6.80;;;2.85;;
16504;SDS011;8365;51.030;4.696;2023-06-14T13:05:50;3.00;;;2.35;;
16504;SDS011;8365;51.030;4.696;2023-06-14T13:08:21;2.80;;;2.50;;
16504;SDS011;8365;51.030;4.696;2023-06-14T13:10:52;5.78;;;2.63;;
16504;SDS011;8365;51.030;4.696;2023-06-14T13:13:25;4.57;;;2.55;;
16504;SDS011;8365;51.030;4.696;2023-06-14T13:15:55;4.55;;;2.35;;
16504;SDS011;8365;51.030;4.696;2023-06-14T13:18:26;3.30;;;2.10;;
16504;SDS011;8365;51.030;4.696;2023-06-14T13:20:56;2.40;;;2.20;;
16504;SDS011;8365;51.030;4.696;2023-06-14T13:23:27;2.15;;;2.00;;
16504;SDS011;8365;51.030;4.696;2023-06-14T13:25:57;2.55;;;2.35;;
16504;SDS011;8365;51.030;4.696;2023-06-14T13:28:27;3.40;;;2.30;;
16504;SDS011;8365;51.030;4.696;2023-06-14T13:30:58;5.57;;;2.17;;
16504;SDS011;8365;51.030;4.696;2023-06-14T13:33:28;3.35;;;2.20;;
16504;SDS011;8365;51.030;4.696;2023-06-14T13:35:59;2.50;;;2.30;;
16504;SDS011;8365;51.030;4.696;2023-06-14T13:38:30;4.65;;;2.50;;
16504;SDS011;8365;51.030;4.696;2023-06-14T13:41:00;3.22;;;2.47;;
16504;SDS011;8365;51.030;4.696;2023-06-14T13:43:33;3.08;;;2.10;;
16504;SDS011;8365;51.030;4.696;2023-06-14T13:46:03;3.25;;;1.92;;
16504;SDS011;8365;51.030;4.696;2023-06-14T13:48:34;2.40;;;2.20;;
16504;SDS011;8365;51.030;4.696;2023-06-14T13:51:04;4.43;;;2.30;;
16504;SDS011;8365;51.030;4.696;2023-06-14T13:53:35;3.10;;;2.10;;
16504;SDS011;8365;51.030;4.696;2023-06-14T13:56:08;3.00;;;2.35;;
16504;SDS011;8365;51.030;4.696;2023-06-14T13:58:38;2.90;;;2.40;;
16504;SDS011;8365;51.030;4.696;2023-06-14T14:01:11;2.58;;;2.33;;
16504;SDS011;8365;51.030;4.696;2023-06-14T14:03:42;2.20;;;2.10;;
16504;SDS011;8365;51.030;4.696;2023-06-14T14:06:13;2.95;;;2.63;;
16504;SDS011;8365;51.030;4.696;2023-06-14T14:08:44;2.40;;;2.20;;
16504;SDS011;8365;51.030;4.696;2023-06-14T14:11:14;2.60;;;2.40;;
16504;SDS011;8365;51.030;4.696;2023-06-14T14:13:46;3.53;;;2.55;;
16504;SDS011;8365;51.030;4.696;2023-06-14T14:16:17;3.83;;;2.60;;
16504;SDS011;8365;51.030;4.696;2023-06-14T14:18:47;2.60;;;2.40;;
16504;SDS011;8365;51.030;4.696;2023-06-14T14:21:18;5.38;;;2.50;;
16504;SDS011;8365;51.030;4.696;2023-06-14T14:23:48;4.25;;;2.50;;
16504;SDS011;8365;51.030;4.696;2023-06-14T14:26:19;2.60;;;2.40;;
16504;SDS011;8365;51.030;4.696;2023-06-14T14:28:50;3.10;;;2.47;;
16504;SDS011;8365;51.030;4.696;2023-06-14T14:31:21;5.85;;;2.53;;
16504;SDS011;8365;51.030;4.696;2023-06-14T14:33:52;2.67;;;2.47;;
16504;SDS011;8365;51.030;4.696;2023-06-14T14:36:22;3.45;;;2.80;;
16504;SDS011;8365;51.030;4.696;2023-06-14T14:38:53;3.78;;;2.50;;
16504;SDS011;8365;51.030;4.696;2023-06-14T14:41:23;7.07;;;2.88;;
16504;SDS011;8365;51.030;4.696;2023-06-14T14:43:54;3.00;;;2.60;;
16504;SDS011;8365;51.030;4.696;2023-06-14T14:46:24;2.60;;;2.40;;
16504;SDS011;8365;51.030;4.696;2023-06-14T14:48:55;5.13;;;3.03;;
16504;SDS011;8365;51.030;4.696;2023-06-14T14:51:25;3.42;;;2.40;;
16504;SDS011;8365;51.030;4.696;2023-06-14T14:53:58;3.17;;;2.40;;
16504;SDS011;8365;51.030;4.696;2023-06-14T14:56:28;4.28;;;2.20;;
16504;SDS011;8365;51.030;4.696;2023-06-14T14:58:59;4.80;;;2.40;;
16504;SDS011;8365;51.030;4.696;2023-06-14T15:01:29;3.67;;;2.50;;
16504;SDS011;8365;51.030;4.696;2023-06-14T15:04:00;2.97;;;2.28;;
16504;SDS011;8365;51.030;4.696;2023-06-14T15:06:33;4.63;;;2.42;;
16504;SDS011;8365;51.030;4.696;2023-06-14T15:09:06;2.63;;;2.42;;
16504;SDS011;8365;51.030;4.696;2023-06-14T15:11:36;3.38;;;2.55;;
16504;SDS011;8365;51.030;4.696;2023-06-14T15:14:07;3.42;;;2.50;;
16504;SDS011;8365;51.030;4.696;2023-06-14T15:16:37;3.55;;;2.40;;
16504;SDS011;8365;51.030;4.696;2023-06-14T15:19:08;2.67;;;2.30;;
16504;SDS011;8365;51.030;4.696;2023-06-14T15:21:38;5.78;;;2.35;;
16504;SDS011;8365;51.030;4.696;2023-06-14T15:24:08;2.97;;;2.67;;
16504;SDS011;8365;51.030;4.696;2023-06-14T15:26:39;4.20;;;2.50;;
16504;SDS011;8365;51.030;4.696;2023-06-14T15:29:10;4.57;;;2.70;;
16504;SDS011;8365;51.030;4.696;2023-06-14T15:31:40;3.65;;;2.58;;
16504;SDS011;8365;51.030;4.696;2023-06-14T15:34:10;3.25;;;2.50;;
16504;SDS011;8365;51.030;4.696;2023-06-14T15:36:41;2.90;;;2.50;;
16504;SDS011;8365;51.030;4.696;2023-06-14T15:39:11;3.67;;;2.53;;
16504;SDS011;8365;51.030;4.696;2023-06-14T15:41:42;3.95;;;2.17;;